Helena, MT

11:43 AM MDT on April 27, 2017 (GMT -0600)
Capital High | | Change Station

Elev 3871 ft 46.62 °N, 112.05 °W | Updated 42 seconds ago

Overcast
Overcast
47.6 °F
Feels Like 43 °F
N
10.0
Wind Variable Wind from SW

Today
High -- | Low -- °F
--% Chance of Precip.
Yesterday
High -- | Low -- °F
Precip. -- in
Pressure 29.76 in
Visibility 10.0 miles
Clouds Overcast 5500 ft
Windchill 43 °F
Dew Point 29 °F
Humidity 49%
Rainfall 0.00 in
Snow Depth Not available.
6:19 AM 8:32 PM
New Moon, 2% visible
METAR KHLN 271653Z 26019G28KT 10SM OVC055 07/M02 A2970 RMK AO2 PK WND 26028/1649 SLP076 T00671022
Pressure 29.76 in
Visibility 10.0 miles
Clouds Overcast 5500 ft
Windchill 43 °F
Dew Point 29 °F
Humidity 49%
Rainfall 0.00 in
Snow Depth Not available.
6:19 AM 8:32 PM
New Moon, 2% visible
METAR KHLN 271653Z 26019G28KT 10SM OVC055 07/M02 A2970 RMK AO2 PK WND 26028/1649 SLP076 T00671022

Get Severe Weather Alerts

Thanks for signing up!

Be on the lookout for a verification email in your inbox.

You'll start receiving the daily forecast at 8 AM.

×

10-Day Weather Forecast

Almanac

Astronomy

Apr. 27, 2017 Rise Set
Actual Time
Civil Twilight
Nautical Twilight
Astronomical Twilight
Moon
Length of Visible Light
Length of Day
Tomorrow will be .
, % of the Moon is Illuminated

Today's Extremes

State Highs State Lows

Community

WunderPhotos

WunderBlog® & News

Nearby

Air Quality

  Air Quality AQ Index Pollutant
Not available.

Snow Depth

Station Depth Elevation

Earthquake Activity

City Distance Mag. Time & Date
Minimum magnitude displayed is 2.5.

Coastal Water Temperatures

Place Temperature

Stations

Nearby Weather Stations

Station Location Temp. Windchill Dew Point Humidity Wind Precip. Elev Updated Type
                   

Watches & Warnings

There are currently no watches in effect.